sensor_id;sensor_type;location;lat;lon;timestamp;temperature;humidity
418;DHT22;49;48.530;9.200;2023-08-06T00:01:34;23.20;55.20
418;DHT22;49;48.530;9.200;2023-08-06T00:04:01;23.40;53.40
418;DHT22;49;48.530;9.200;2023-08-06T00:06:28;23.30;53.70
418;DHT22;49;48.530;9.200;2023-08-06T00:08:55;23.50;53.20
418;DHT22;49;48.530;9.200;2023-08-06T00:11:23;23.60;51.30
418;DHT22;49;48.530;9.200;2023-08-06T00:13:50;23.50;51.60
418;DHT22;49;48.530;9.200;2023-08-06T00:16:20;23.60;50.60
418;DHT22;49;48.530;9.200;2023-08-06T00:18:51;23.20;50.70
418;DHT22;49;48.530;9.200;2023-08-06T00:21:18;23.30;52.30
418;DHT22;49;48.530;9.200;2023-08-06T00:23:45;23.30;53.10
418;DHT22;49;48.530;9.200;2023-08-06T00:26:12;23.40;52.30
418;DHT22;49;48.530;9.200;2023-08-06T00:28:40;23.40;51.10
418;DHT22;49;48.530;9.200;2023-08-06T00:31:07;23.20;51.40
418;DHT22;49;48.530;9.200;2023-08-06T00:33:34;23.20;52.40
418;DHT22;49;48.530;9.200;2023-08-06T00:36:04;23.00;51.30
418;DHT22;49;48.530;9.200;2023-08-06T00:38:31;23.10;52.90
418;DHT22;49;48.530;9.200;2023-08-06T00:40:59;23.10;52.00
418;DHT22;49;48.530;9.200;2023-08-06T00:43:26;23.10;51.80
418;DHT22;49;48.530;9.200;2023-08-06T00:45:53;23.30;52.10
418;DHT22;49;48.530;9.200;2023-08-06T00:48:22;23.30;50.10
418;DHT22;49;48.530;9.200;2023-08-06T00:50:49;23.20;50.30
418;DHT22;49;48.530;9.200;2023-08-06T00:53:18;23.20;51.90
418;DHT22;49;48.530;9.200;2023-08-06T00:55:45;23.10;51.60
418;DHT22;49;48.530;9.200;2023-08-06T00:58:13;23.10;50.20
418;DHT22;49;48.530;9.200;2023-08-06T01:00:40;23.00;50.50
418;DHT22;49;48.530;9.200;2023-08-06T01:03:08;23.10;49.80
418;DHT22;49;48.530;9.200;2023-08-06T01:05:35;22.90;51.00
418;DHT22;49;48.530;9.200;2023-08-06T01:08:19;22.90;50.20
418;DHT22;49;48.530;9.200;2023-08-06T01:10:54;22.70;49.60
418;DHT22;49;48.530;9.200;2023-08-06T01:13:33;22.50;51.60
418;DHT22;49;48.530;9.200;2023-08-06T01:16:07;22.60;49.80
418;DHT22;49;48.530;9.200;2023-08-06T01:18:47;22.40;52.30
418;DHT22;49;48.530;9.200;2023-08-06T01:21:25;22.50;53.90
418;DHT22;49;48.530;9.200;2023-08-06T01:23:52;22.50;50.60
418;DHT22;49;48.530;9.200;2023-08-06T01:26:26;22.50;52.20
418;DHT22;49;48.530;9.200;2023-08-06T01:28:59;22.40;50.70
418;DHT22;49;48.530;9.200;2023-08-06T01:31:31;22.50;53.30
418;DHT22;49;48.530;9.200;2023-08-06T01:34:01;22.40;49.50
418;DHT22;49;48.530;9.200;2023-08-06T01:36:37;22.20;50.90
418;DHT22;49;48.530;9.200;2023-08-06T01:39:05;22.30;51.40
418;DHT22;49;48.530;9.200;2023-08-06T01:41:32;22.00;47.50
418;DHT22;49;48.530;9.200;2023-08-06T01:43:59;22.00;51.30
418;DHT22;49;48.530;9.200;2023-08-06T01:46:27;22.10;54.60
418;DHT22;49;48.530;9.200;2023-08-06T01:48:54;22.10;54.20
418;DHT22;49;48.530;9.200;2023-08-06T01:51:21;22.30;54.80
418;DHT22;49;48.530;9.200;2023-08-06T01:53:50;22.50;53.60
418;DHT22;49;48.530;9.200;2023-08-06T01:56:19;22.60;50.30
418;DHT22;49;48.530;9.200;2023-08-06T01:58:46;22.50;52.20
418;DHT22;49;48.530;9.200;2023-08-06T02:01:13;22.50;51.40
418;DHT22;49;48.530;9.200;2023-08-06T02:03:40;22.60;51.20
418;DHT22;49;48.530;9.200;2023-08-06T02:06:07;22.70;51.70
418;DHT22;49;48.530;9.200;2023-08-06T02:08:34;22.80;50.70
418;DHT22;49;48.530;9.200;2023-08-06T02:11:02;22.80;49.70
418;DHT22;49;48.530;9.200;2023-08-06T02:13:30;22.90;49.80
418;DHT22;49;48.530;9.200;2023-08-06T02:15:57;22.90;49.20
418;DHT22;49;48.530;9.200;2023-08-06T02:18:27;23.00;49.00
418;DHT22;49;48.530;9.200;2023-08-06T02:21:00;23.00;46.10
418;DHT22;49;48.530;9.200;2023-08-06T02:23:27;22.60;47.50
418;DHT22;49;48.530;9.200;2023-08-06T02:25:58;22.30;48.10
418;DHT22;49;48.530;9.200;2023-08-06T02:28:29;22.30;48.00
418;DHT22;49;48.530;9.200;2023-08-06T02:30:56;22.10;43.80
418;DHT22;49;48.530;9.200;2023-08-06T02:33:28;21.40;45.80
418;DHT22;49;48.530;9.200;2023-08-06T02:36:02;20.90;49.00
418;DHT22;49;48.530;9.200;2023-08-06T02:38:30;20.30;52.70
418;DHT22;49;48.530;9.200;2023-08-06T02:40:57;20.20;55.40
418;DHT22;49;48.530;9.200;2023-08-06T02:43:24;20.30;63.30
418;DHT22;49;48.530;9.200;2023-08-06T02:45:56;20.40;54.10
418;DHT22;49;48.530;9.200;2023-08-06T02:48:24;20.40;58.10
418;DHT22;49;48.530;9.200;2023-08-06T02:50:51;20.50;59.10
418;DHT22;49;48.530;9.200;2023-08-06T02:53:18;20.80;52.40
418;DHT22;49;48.530;9.200;2023-08-06T02:55:48;20.60;53.50
418;DHT22;49;48.530;9.200;2023-08-06T02:58:17;20.70;52.70
418;DHT22;49;48.530;9.200;2023-08-06T03:00:59;20.80;57.60
418;DHT22;49;48.530;9.200;2023-08-06T03:03:28;21.20;57.40
418;DHT22;49;48.530;9.200;2023-08-06T03:05:55;21.30;51.50
418;DHT22;49;48.530;9.200;2023-08-06T03:08:23;21.40;48.50
418;DHT22;49;48.530;9.200;2023-08-06T03:10:50;21.60;48.70
418;DHT22;49;48.530;9.200;2023-08-06T03:13:17;21.50;47.00
418;DHT22;49;48.530;9.200;2023-08-06T03:15:51;21.20;49.10
418;DHT22;49;48.530;9.200;2023-08-06T03:18:20;20.90;51.90
418;DHT22;49;48.530;9.200;2023-08-06T03:20:47;21.00;50.00
418;DHT22;49;48.530;9.200;2023-08-06T03:23:14;21.10;52.60
418;DHT22;49;48.530;9.200;2023-08-06T03:25:41;21.00;47.20
418;DHT22;49;48.530;9.200;2023-08-06T03:28:08;20.90;52.80
418;DHT22;49;48.530;9.200;2023-08-06T03:30:36;21.10;52.20
418;DHT22;49;48.530;9.200;2023-08-06T03:33:03;21.30;47.40
418;DHT22;49;48.530;9.200;2023-08-06T03:35:32;20.80;50.10
418;DHT22;49;48.530;9.200;2023-08-06T03:37:59;20.70;51.00
418;DHT22;49;48.530;9.200;2023-08-06T03:40:26;20.90;52.50
418;DHT22;49;48.530;9.200;2023-08-06T03:42:53;21.00;54.30
418;DHT22;49;48.530;9.200;2023-08-06T03:45:20;21.10;49.10
418;DHT22;49;48.530;9.200;2023-08-06T03:47:47;21.20;46.40
418;DHT22;49;48.530;9.200;2023-08-06T03:50:14;21.20;51.00
418;DHT22;49;48.530;9.200;2023-08-06T03:52:42;21.50;47.50
418;DHT22;49;48.530;9.200;2023-08-06T03:55:09;21.30;46.30
418;DHT22;49;48.530;9.200;2023-08-06T03:57:36;20.90;51.00
418;DHT22;49;48.530;9.200;2023-08-06T04:00:04;20.40;53.20
418;DHT22;49;48.530;9.200;2023-08-06T04:02:31;20.00;57.20
418;DHT22;49;48.530;9.200;2023-08-06T04:04:58;19.40;61.30
418;DHT22;49;48.530;9.200;2023-08-06T04:07:25;19.10;70.10
418;DHT22;49;48.530;9.200;2023-08-06T04:09:56;19.10;78.70
418;DHT22;49;48.530;9.200;2023-08-06T04:12:24;18.90;89.70
418;DHT22;49;48.530;9.200;2023-08-06T04:14:51;18.50;98.60
418;DHT22;49;48.530;9.200;2023-08-06T04:17:21;18.80;99.90
418;DHT22;49;48.530;9.200;2023-08-06T04:19:50;19.00;99.90
418;DHT22;49;48.530;9.200;2023-08-06T04:22:18;18.50;99.90
418;DHT22;49;48.530;9.200;2023-08-06T04:24:45;18.20;99.90
418;DHT22;49;48.530;9.200;2023-08-06T04:27:15;18.10;99.90
418;DHT22;49;48.530;9.200;2023-08-06T04:29:44;17.80;99.90
418;DHT22;49;48.530;9.200;2023-08-06T04:32:13;17.80;99.90
418;DHT22;49;48.530;9.200;2023-08-06T04:34:40;18.20;99.90
418;DHT22;49;48.530;9.200;2023-08-06T04:37:09;18.80;99.90
418;DHT22;49;48.530;9.200;2023-08-06T04:39:36;18.90;99.90
418;DHT22;49;48.530;9.200;2023-08-06T04:42:04;19.10;99.90
418;DHT22;49;48.530;9.200;2023-08-06T04:44:34;19.50;99.90
418;DHT22;49;48.530;9.200;2023-08-06T04:47:01;19.30;99.90
418;DHT22;49;48.530;9.200;2023-08-06T04:49:28;19.00;99.90
418;DHT22;49;48.530;9.200;2023-08-06T04:51:55;19.00;99.90
418;DHT22;49;48.530;9.200;2023-08-06T04:54:22;19.10;99.90
418;DHT22;49;48.530;9.200;2023-08-06T04:56:49;19.00;99.90
418;DHT22;49;48.530;9.200;2023-08-06T04:59:17;18.70;99.90
418;DHT22;49;48.530;9.200;2023-08-06T05:01:45;18.50;99.90
418;DHT22;49;48.530;9.200;2023-08-06T05:04:12;18.70;99.90
418;DHT22;49;48.530;9.200;2023-08-06T05:06:39;18.60;99.90
418;DHT22;49;48.530;9.200;2023-08-06T05:09:07;18.40;99.90
418;DHT22;49;48.530;9.200;2023-08-06T05:11:34;18.30;99.90
418;DHT22;49;48.530;9.200;2023-08-06T05:14:01;18.50;99.90
418;DHT22;49;48.530;9.200;2023-08-06T05:16:28;18.60;99.90
418;DHT22;49;48.530;9.200;2023-08-06T05:18:57;18.50;99.90
418;DHT22;49;48.530;9.200;2023-08-06T05:21:24;18.70;99.90
418;DHT22;49;48.530;9.200;2023-08-06T05:23:51;18.70;99.90
418;DHT22;49;48.530;9.200;2023-08-06T05:26:18;19.00;99.90
418;DHT22;49;48.530;9.200;2023-08-06T05:28:46;19.60;99.90
418;DHT22;49;48.530;9.200;2023-08-06T05:31:13;19.80;99.90
418;DHT22;49;48.530;9.200;2023-08-06T05:33:40;20.10;99.90
418;DHT22;49;48.530;9.200;2023-08-06T05:36:08;20.10;99.90
418;DHT22;49;48.530;9.200;2023-08-06T05:38:35;20.30;99.90
418;DHT22;49;48.530;9.200;2023-08-06T05:41:02;20.50;99.90
418;DHT22;49;48.530;9.200;2023-08-06T05:43:29;21.10;92.20
418;DHT22;49;48.530;9.200;2023-08-06T05:45:57;21.10;90.00
418;DHT22;49;48.530;9.200;2023-08-06T05:48:24;21.10;90.30
418;DHT22;49;48.530;9.200;2023-08-06T05:50:53;21.00;86.70
418;DHT22;49;48.530;9.200;2023-08-06T05:53:22;20.70;90.30
418;DHT22;49;48.530;9.200;2023-08-06T05:55:49;20.80;90.80
418;DHT22;49;48.530;9.200;2023-08-06T05:58:17;20.50;92.00
418;DHT22;49;48.530;9.200;2023-08-06T06:00:47;20.00;95.30
418;DHT22;49;48.530;9.200;2023-08-06T06:03:14;19.80;94.60
418;DHT22;49;48.530;9.200;2023-08-06T06:05:43;19.30;99.90
418;DHT22;49;48.530;9.200;2023-08-06T06:08:10;19.40;98.90
418;DHT22;49;48.530;9.200;2023-08-06T06:10:56;19.50;98.80
418;DHT22;49;48.530;9.200;2023-08-06T06:13:23;19.20;98.30
418;DHT22;49;48.530;9.200;2023-08-06T06:15:54;19.40;99.90
418;DHT22;49;48.530;9.200;2023-08-06T06:18:21;19.30;99.90
418;DHT22;49;48.530;9.200;2023-08-06T06:20:55;19.70;99.90
418;DHT22;49;48.530;9.200;2023-08-06T06:23:38;19.50;99.90
418;DHT22;49;48.530;9.200;2023-08-06T06:26:22;19.50;99.90
418;DHT22;49;48.530;9.200;2023-08-06T06:28:52;19.70;99.90
418;DHT22;49;48.530;9.200;2023-08-06T06:31:22;19.80;99.90
418;DHT22;49;48.530;9.200;2023-08-06T06:33:50;20.80;94.60
418;DHT22;49;48.530;9.200;2023-08-06T06:36:19;20.80;94.00
418;DHT22;49;48.530;9.200;2023-08-06T06:38:46;21.10;92.80
418;DHT22;49;48.530;9.200;2023-08-06T06:41:15;21.20;87.00
418;DHT22;49;48.530;9.200;2023-08-06T06:43:42;20.90;86.20
418;DHT22;49;48.530;9.200;2023-08-06T06:46:09;20.90;87.30
418;DHT22;49;48.530;9.200;2023-08-06T06:48:37;20.90;85.90
418;DHT22;49;48.530;9.200;2023-08-06T06:51:04;20.70;83.00
418;DHT22;49;48.530;9.200;2023-08-06T06:53:35;20.80;86.60
418;DHT22;49;48.530;9.200;2023-08-06T06:56:05;20.60;90.50
418;DHT22;49;48.530;9.200;2023-08-06T06:58:34;21.20;88.20
418;DHT22;49;48.530;9.200;2023-08-06T07:01:03;21.00;80.90
418;DHT22;49;48.530;9.200;2023-08-06T07:03:33;20.70;86.60
418;DHT22;49;48.530;9.200;2023-08-06T07:06:00;19.90;89.20
418;DHT22;49;48.530;9.200;2023-08-06T07:08:29;19.70;99.40
418;DHT22;49;48.530;9.200;2023-08-06T07:11:03;20.20;96.40
418;DHT22;49;48.530;9.200;2023-08-06T07:13:31;20.50;92.10
418;DHT22;49;48.530;9.200;2023-08-06T07:16:04;20.30;95.90
418;DHT22;49;48.530;9.200;2023-08-06T07:18:37;20.60;91.60
418;DHT22;49;48.530;9.200;2023-08-06T07:21:06;20.30;88.80
418;DHT22;49;48.530;9.200;2023-08-06T07:23:36;20.60;91.90
418;DHT22;49;48.530;9.200;2023-08-06T07:26:04;20.70;94.20
418;DHT22;49;48.530;9.200;2023-08-06T07:28:35;21.10;86.90
418;DHT22;49;48.530;9.200;2023-08-06T07:31:04;20.80;87.90
418;DHT22;49;48.530;9.200;2023-08-06T07:33:31;20.20;93.70
418;DHT22;49;48.530;9.200;2023-08-06T07:35:58;19.60;99.90
418;DHT22;49;48.530;9.200;2023-08-06T07:38:25;19.80;99.90
418;DHT22;49;48.530;9.200;2023-08-06T07:40:53;20.00;99.90
418;DHT22;49;48.530;9.200;2023-08-06T07:43:20;20.20;99.90
418;DHT22;49;48.530;9.200;2023-08-06T07:45:47;20.30;99.80
418;DHT22;49;48.530;9.200;2023-08-06T07:48:16;20.50;96.60
418;DHT22;49;48.530;9.200;2023-08-06T07:50:43;20.60;97.00
418;DHT22;49;48.530;9.200;2023-08-06T07:53:15;21.00;94.00
418;DHT22;49;48.530;9.200;2023-08-06T07:55:49;20.60;95.90
418;DHT22;49;48.530;9.200;2023-08-06T07:58:16;20.80;94.70
418;DHT22;49;48.530;9.200;2023-08-06T08:00:47;20.90;94.10
418;DHT22;49;48.530;9.200;2023-08-06T08:03:16;20.20;94.70
418;DHT22;49;48.530;9.200;2023-08-06T08:05:46;19.90;96.70
418;DHT22;49;48.530;9.200;2023-08-06T08:08:13;20.10;96.50
418;DHT22;49;48.530;9.200;2023-08-06T08:10:40;20.00;97.30
418;DHT22;49;48.530;9.200;2023-08-06T08:13:07;20.70;96.10
418;DHT22;49;48.530;9.200;2023-08-06T08:15:34;20.60;91.20
418;DHT22;49;48.530;9.200;2023-08-06T08:18:02;20.20;93.60
418;DHT22;49;48.530;9.200;2023-08-06T08:20:31;20.20;92.50
418;DHT22;49;48.530;9.200;2023-08-06T08:22:59;20.10;96.30
418;DHT22;49;48.530;9.200;2023-08-06T08:25:27;20.70;93.60
418;DHT22;49;48.530;9.200;2023-08-06T08:27:54;20.50;94.40
418;DHT22;49;48.530;9.200;2023-08-06T08:30:22;20.40;95.60
418;DHT22;49;48.530;9.200;2023-08-06T08:32:50;19.40;99.90
418;DHT22;49;48.530;9.200;2023-08-06T08:35:17;19.70;99.90
418;DHT22;49;48.530;9.200;2023-08-06T08:37:46;19.30;99.90
418;DHT22;49;48.530;9.200;2023-08-06T08:40:14;19.50;99.90
418;DHT22;49;48.530;9.200;2023-08-06T08:42:44;19.90;99.90
418;DHT22;49;48.530;9.200;2023-08-06T08:45:12;19.90;99.90
418;DHT22;49;48.530;9.200;2023-08-06T08:47:40;20.50;99.80
418;DHT22;49;48.530;9.200;2023-08-06T08:50:09;20.30;99.90
418;DHT22;49;48.530;9.200;2023-08-06T08:52:38;20.40;99.90
418;DHT22;49;48.530;9.200;2023-08-06T08:55:08;20.60;99.80
418;DHT22;49;48.530;9.200;2023-08-06T08:57:36;20.60;96.90
418;DHT22;49;48.530;9.200;2023-08-06T09:00:03;21.10;96.80
418;DHT22;49;48.530;9.200;2023-08-06T09:02:32;20.80;91.50
418;DHT22;49;48.530;9.200;2023-08-06T09:05:01;20.00;99.20
418;DHT22;49;48.530;9.200;2023-08-06T09:07:32;19.70;99.90
418;DHT22;49;48.530;9.200;2023-08-06T09:10:02;19.40;99.90
418;DHT22;49;48.530;9.200;2023-08-06T09:12:34;19.70;99.90
418;DHT22;49;48.530;9.200;2023-08-06T09:15:04;19.90;99.90
418;DHT22;49;48.530;9.200;2023-08-06T09:17:33;20.30;99.90
418;DHT22;49;48.530;9.200;2023-08-06T09:20:09;19.80;99.90
418;DHT22;49;48.530;9.200;2023-08-06T09:22:37;19.70;99.90
418;DHT22;49;48.530;9.200;2023-08-06T09:25:06;19.20;99.90
418;DHT22;49;48.530;9.200;2023-08-06T09:27:37;19.40;99.90
418;DHT22;49;48.530;9.200;2023-08-06T09:30:05;19.70;99.90
418;DHT22;49;48.530;9.200;2023-08-06T09:32:48;20.10;99.90
418;DHT22;49;48.530;9.200;2023-08-06T09:35:17;20.80;99.90
418;DHT22;49;48.530;9.200;2023-08-06T09:37:44;20.30;99.90
418;DHT22;49;48.530;9.200;2023-08-06T09:40:29;20.30;99.90
418;DHT22;49;48.530;9.200;2023-08-06T09:42:58;20.00;99.90
418;DHT22;49;48.530;9.200;2023-08-06T09:45:33;20.10;99.90
418;DHT22;49;48.530;9.200;2023-08-06T09:48:03;20.20;99.90
418;DHT22;49;48.530;9.200;2023-08-06T09:50:32;20.10;99.90
418;DHT22;49;48.530;9.200;2023-08-06T09:53:02;19.60;99.90
418;DHT22;49;48.530;9.200;2023-08-06T09:55:29;19.60;99.90
418;DHT22;49;48.530;9.200;2023-08-06T09:57:59;19.20;99.90
418;DHT22;49;48.530;9.200;2023-08-06T10:00:26;19.00;99.90
418;DHT22;49;48.530;9.200;2023-08-06T10:02:55;19.10;99.90
418;DHT22;49;48.530;9.200;2023-08-06T10:05:26;19.70;99.90
418;DHT22;49;48.530;9.200;2023-08-06T10:07:54;19.60;99.90
418;DHT22;49;48.530;9.200;2023-08-06T10:10:23;20.00;99.90
418;DHT22;49;48.530;9.200;2023-08-06T10:12:58;20.20;99.90
418;DHT22;49;48.530;9.200;2023-08-06T10:15:27;19.70;99.90
418;DHT22;49;48.530;9.200;2023-08-06T10:17:57;19.20;99.90
418;DHT22;49;48.530;9.200;2023-08-06T10:20:26;19.10;99.90
418;DHT22;49;48.530;9.200;2023-08-06T10:23:00;19.10;99.90
418;DHT22;49;48.530;9.200;2023-08-06T10:25:33;18.90;99.90
418;DHT22;49;48.530;9.200;2023-08-06T10:28:09;19.00;99.90
418;DHT22;49;48.530;9.200;2023-08-06T10:30:42;19.20;99.90
418;DHT22;49;48.530;9.200;2023-08-06T10:33:10;19.30;99.90
418;DHT22;49;48.530;9.200;2023-08-06T10:35:38;19.50;99.90
418;DHT22;49;48.530;9.200;2023-08-06T10:38:12;19.80;99.90
418;DHT22;49;48.530;9.200;2023-08-06T10:40:41;19.80;99.90
418;DHT22;49;48.530;9.200;2023-08-06T10:43:25;19.90;99.90
418;DHT22;49;48.530;9.200;2023-08-06T10:45:56;19.80;99.90
418;DHT22;49;48.530;9.200;2023-08-06T10:48:33;19.60;99.90
418;DHT22;49;48.530;9.200;2023-08-06T10:51:07;19.50;99.90
418;DHT22;49;48.530;9.200;2023-08-06T10:53:34;19.10;99.90
418;DHT22;49;48.530;9.200;2023-08-06T10:56:02;19.50;99.90
418;DHT22;49;48.530;9.200;2023-08-06T10:58:34;19.60;99.90
418;DHT22;49;48.530;9.200;2023-08-06T11:01:01;19.70;99.90
418;DHT22;49;48.530;9.200;2023-08-06T11:03:29;19.90;99.90
418;DHT22;49;48.530;9.200;2023-08-06T11:05:58;19.70;99.90
418;DHT22;49;48.530;9.200;2023-08-06T11:08:25;19.30;99.90
418;DHT22;49;48.530;9.200;2023-08-06T11:10:55;19.70;99.90
418;DHT22;49;48.530;9.200;2023-08-06T11:13:38;19.40;99.90
418;DHT22;49;48.530;9.200;2023-08-06T11:16:05;19.30;99.90
418;DHT22;49;48.530;9.200;2023-08-06T11:18:33;19.40;99.90
418;DHT22;49;48.530;9.200;2023-08-06T11:21:00;19.70;99.90
418;DHT22;49;48.530;9.200;2023-08-06T11:23:31;19.60;99.90
418;DHT22;49;48.530;9.200;2023-08-06T11:25:58;19.70;99.90
418;DHT22;49;48.530;9.200;2023-08-06T11:28:25;20.10;99.90
418;DHT22;49;48.530;9.200;2023-08-06T11:30:59;20.00;99.90
418;DHT22;49;48.530;9.200;2023-08-06T11:33:29;19.60;99.90
418;DHT22;49;48.530;9.200;2023-08-06T11:35:58;19.30;99.90
418;DHT22;49;48.530;9.200;2023-08-06T11:38:28;19.90;99.90
418;DHT22;49;48.530;9.200;2023-08-06T11:40:55;20.20;99.90
418;DHT22;49;48.530;9.200;2023-08-06T11:43:29;19.90;99.90
418;DHT22;49;48.530;9.200;2023-08-06T11:46:00;20.00;99.90
418;DHT22;49;48.530;9.200;2023-08-06T11:48:31;20.30;99.90
418;DHT22;49;48.530;9.200;2023-08-06T11:50:58;20.30;99.90
418;DHT22;49;48.530;9.200;2023-08-06T11:53:27;20.60;99.90
418;DHT22;49;48.530;9.200;2023-08-06T11:55:58;21.10;99.90
418;DHT22;49;48.530;9.200;2023-08-06T11:58:26;21.20;99.90
418;DHT22;49;48.530;9.200;2023-08-06T12:00:53;21.50;99.90
418;DHT22;49;48.530;9.200;2023-08-06T12:03:23;21.40;99.90
418;DHT22;49;48.530;9.200;2023-08-06T12:05:54;22.00;99.90
418;DHT22;49;48.530;9.200;2023-08-06T12:08:21;22.40;97.60
418;DHT22;49;48.530;9.200;2023-08-06T12:10:53;22.00;98.30
418;DHT22;49;48.530;9.200;2023-08-06T12:13:20;21.80;96.00
418;DHT22;49;48.530;9.200;2023-08-06T12:15:47;21.90;97.00
418;DHT22;49;48.530;9.200;2023-08-06T12:18:13;22.20;88.50
418;DHT22;49;48.530;9.200;2023-08-06T12:20:44;21.80;91.00
418;DHT22;49;48.530;9.200;2023-08-06T12:23:11;21.50;85.70
418;DHT22;49;48.530;9.200;2023-08-06T12:25:40;21.10;90.00
418;DHT22;49;48.530;9.200;2023-08-06T12:28:10;21.00;92.00
418;DHT22;49;48.530;9.200;2023-08-06T12:30:38;21.50;85.70
418;DHT22;49;48.530;9.200;2023-08-06T12:33:08;21.30;88.10
418;DHT22;49;48.530;9.200;2023-08-06T12:35:35;21.10;84.90
418;DHT22;49;48.530;9.200;2023-08-06T12:38:05;21.10;81.60
418;DHT22;49;48.530;9.200;2023-08-06T12:40:32;21.10;80.20
418;DHT22;49;48.530;9.200;2023-08-06T12:43:02;20.90;75.00
418;DHT22;49;48.530;9.200;2023-08-06T12:45:29;20.50;77.60
418;DHT22;49;48.530;9.200;2023-08-06T12:47:56;20.20;83.30
418;DHT22;49;48.530;9.200;2023-08-06T12:50:26;20.60;80.80
418;DHT22;49;48.530;9.200;2023-08-06T12:52:54;20.90;82.80
418;DHT22;49;48.530;9.200;2023-08-06T12:55:23;21.10;78.10
418;DHT22;49;48.530;9.200;2023-08-06T12:57:55;21.10;71.60
418;DHT22;49;48.530;9.200;2023-08-06T13:00:29;21.00;78.80
418;DHT22;49;48.530;9.200;2023-08-06T13:03:02;21.30;80.00
418;DHT22;49;48.530;9.200;2023-08-06T13:05:37;21.20;74.10
418;DHT22;49;48.530;9.200;2023-08-06T13:08:13;21.20;63.30
418;DHT22;49;48.530;9.200;2023-08-06T13:10:42;21.00;70.00
418;DHT22;49;48.530;9.200;2023-08-06T13:13:21;21.00;76.70
418;DHT22;49;48.530;9.200;2023-08-06T13:15:55;21.30;69.10
418;DHT22;49;48.530;9.200;2023-08-06T13:18:22;21.20;66.00
418;DHT22;49;48.530;9.200;2023-08-06T13:20:54;21.60;65.40
418;DHT22;49;48.530;9.200;2023-08-06T13:23:24;22.00;61.00
418;DHT22;49;48.530;9.200;2023-08-06T13:25:53;22.30;61.80
418;DHT22;49;48.530;9.200;2023-08-06T13:28:26;22.70;59.40
418;DHT22;49;48.530;9.200;2023-08-06T13:30:56;22.50;61.70
418;DHT22;49;48.530;9.200;2023-08-06T13:33:23;22.00;55.20
418;DHT22;49;48.530;9.200;2023-08-06T13:35:53;22.10;51.50
418;DHT22;49;48.530;9.200;2023-08-06T13:38:26;22.00;55.20
418;DHT22;49;48.530;9.200;2023-08-06T13:41:04;22.80;52.90
418;DHT22;49;48.530;9.200;2023-08-06T13:43:43;21.90;46.30
418;DHT22;49;48.530;9.200;2023-08-06T13:46:17;21.50;60.00
418;DHT22;49;48.530;9.200;2023-08-06T13:48:46;21.60;53.10
418;DHT22;49;48.530;9.200;2023-08-06T13:51:16;21.90;52.90
418;DHT22;49;48.530;9.200;2023-08-06T13:53:49;21.60;56.60
418;DHT22;49;48.530;9.200;2023-08-06T13:56:24;21.30;57.70
418;DHT22;49;48.530;9.200;2023-08-06T13:58:55;21.40;59.50
418;DHT22;49;48.530;9.200;2023-08-06T14:01:22;21.30;59.00
418;DHT22;49;48.530;9.200;2023-08-06T14:03:49;20.90;61.50
418;DHT22;49;48.530;9.200;2023-08-06T14:06:18;20.90;59.50
418;DHT22;49;48.530;9.200;2023-08-06T14:08:48;20.80;68.20
418;DHT22;49;48.530;9.200;2023-08-06T14:11:22;20.80;60.00
418;DHT22;49;48.530;9.200;2023-08-06T14:13:51;20.80;65.50
418;DHT22;49;48.530;9.200;2023-08-06T14:16:19;21.20;60.20
418;DHT22;49;48.530;9.200;2023-08-06T14:18:47;20.80;60.80
418;DHT22;49;48.530;9.200;2023-08-06T14:21:20;21.00;62.70
418;DHT22;49;48.530;9.200;2023-08-06T14:23:49;21.30;59.30
418;DHT22;49;48.530;9.200;2023-08-06T14:26:23;20.80;62.60
418;DHT22;49;48.530;9.200;2023-08-06T14:28:53;20.40;64.00
418;DHT22;49;48.530;9.200;2023-08-06T14:31:30;20.50;62.60
418;DHT22;49;48.530;9.200;2023-08-06T14:34:20;20.90;63.70
418;DHT22;49;48.530;9.200;2023-08-06T14:36:53;21.40;59.20
418;DHT22;49;48.530;9.200;2023-08-06T14:39:20;21.10;60.60
418;DHT22;49;48.530;9.200;2023-08-06T14:41:48;20.50;79.50
418;DHT22;49;48.530;9.200;2023-08-06T14:44:15;20.30;82.10
418;DHT22;49;48.530;9.200;2023-08-06T14:46:43;20.40;85.70
418;DHT22;49;48.530;9.200;2023-08-06T14:49:14;19.80;92.10
418;DHT22;49;48.530;9.200;2023-08-06T14:51:41;19.90;93.30
418;DHT22;49;48.530;9.200;2023-08-06T14:54:08;20.50;92.70
418;DHT22;49;48.530;9.200;2023-08-06T14:56:38;20.80;88.90
418;DHT22;49;48.530;9.200;2023-08-06T14:59:07;20.80;82.80
418;DHT22;49;48.530;9.200;2023-08-06T15:01:34;20.60;81.50
418;DHT22;49;48.530;9.200;2023-08-06T15:04:04;20.60;78.00
418;DHT22;49;48.530;9.200;2023-08-06T15:06:36;20.70;87.20
418;DHT22;49;48.530;9.200;2023-08-06T15:09:23;20.60;73.70
418;DHT22;49;48.530;9.200;2023-08-06T15:11:50;20.80;67.90
418;DHT22;49;48.530;9.200;2023-08-06T15:14:19;20.80;68.40
418;DHT22;49;48.530;9.200;2023-08-06T15:16:47;20.90;68.70
418;DHT22;49;48.530;9.200;2023-08-06T15:19:17;20.80;73.30
418;DHT22;49;48.530;9.200;2023-08-06T15:21:57;21.10;60.40
418;DHT22;49;48.530;9.200;2023-08-06T15:24:39;20.80;72.80
418;DHT22;49;48.530;9.200;2023-08-06T15:27:12;20.50;68.50
418;DHT22;49;48.530;9.200;2023-08-06T15:29:56;20.70;64.90
418;DHT22;49;48.530;9.200;2023-08-06T15:32:24;20.60;59.20
418;DHT22;49;48.530;9.200;2023-08-06T15:34:52;21.00;63.70
418;DHT22;49;48.530;9.200;2023-08-06T15:37:24;21.00;59.50
418;DHT22;49;48.530;9.200;2023-08-06T15:40:00;21.20;58.50
418;DHT22;49;48.530;9.200;2023-08-06T15:42:39;21.30;59.60
418;DHT22;49;48.530;9.200;2023-08-06T15:45:26;21.10;56.70
418;DHT22;49;48.530;9.200;2023-08-06T15:47:53;21.00;51.00
418;DHT22;49;48.530;9.200;2023-08-06T15:50:22;20.60;56.30
418;DHT22;49;48.530;9.200;2023-08-06T15:53:00;20.80;53.60
418;DHT22;49;48.530;9.200;2023-08-06T15:55:29;21.00;50.00
418;DHT22;49;48.530;9.200;2023-08-06T15:58:08;20.70;50.40
418;DHT22;49;48.530;9.200;2023-08-06T16:00:38;20.40;51.00
418;DHT22;49;48.530;9.200;2023-08-06T16:03:07;20.60;55.10
418;DHT22;49;48.530;9.200;2023-08-06T16:05:40;20.50;50.40
418;DHT22;49;48.530;9.200;2023-08-06T16:08:14;19.60;50.90
418;DHT22;49;48.530;9.200;2023-08-06T16:10:43;19.60;55.80
418;DHT22;49;48.530;9.200;2023-08-06T16:13:18;19.50;55.60
418;DHT22;49;48.530;9.200;2023-08-06T16:15:49;19.30;60.20
418;DHT22;49;48.530;9.200;2023-08-06T16:18:18;19.70;64.70
418;DHT22;49;48.530;9.200;2023-08-06T16:20:53;19.90;49.80
418;DHT22;49;48.530;9.200;2023-08-06T16:23:25;19.70;52.30
418;DHT22;49;48.530;9.200;2023-08-06T16:25:55;18.80;60.40
418;DHT22;49;48.530;9.200;2023-08-06T16:28:25;18.60;61.00
418;DHT22;49;48.530;9.200;2023-08-06T16:31:00;19.20;67.60
418;DHT22;49;48.530;9.200;2023-08-06T16:33:30;19.70;59.10
418;DHT22;49;48.530;9.200;2023-08-06T16:35:59;20.20;65.80
418;DHT22;49;48.530;9.200;2023-08-06T16:38:53;20.60;49.80
418;DHT22;49;48.530;9.200;2023-08-06T16:41:22;20.10;51.90
418;DHT22;49;48.530;9.200;2023-08-06T16:44:07;19.90;52.50
418;DHT22;49;48.530;9.200;2023-08-06T16:46:41;20.00;54.20
418;DHT22;49;48.530;9.200;2023-08-06T16:49:10;20.40;49.60
418;DHT22;49;48.530;9.200;2023-08-06T16:51:39;20.20;49.70
418;DHT22;49;48.530;9.200;2023-08-06T16:54:12;20.40;48.90
418;DHT22;49;48.530;9.200;2023-08-06T16:56:42;20.40;49.20
418;DHT22;49;48.530;9.200;2023-08-06T16:59:09;20.40;54.60
418;DHT22;49;48.530;9.200;2023-08-06T17:01:42;20.60;46.30
418;DHT22;49;48.530;9.200;2023-08-06T17:04:20;20.40;48.90
418;DHT22;49;48.530;9.200;2023-08-06T17:06:52;20.00;49.70
418;DHT22;49;48.530;9.200;2023-08-06T17:09:24;20.00;50.70